createdAt,value
2022-10-18T00:00:25.297Z,21.7
2022-10-18T00:01:29.527Z,21.69
2022-10-18T00:02:33.906Z,21.7
2022-10-18T00:03:38.511Z,21.71
2022-10-18T00:04:42.976Z,21.71
2022-10-18T00:05:47.196Z,21.71
2022-10-18T00:06:51.497Z,21.69
2022-10-18T00:07:55.716Z,21.68
2022-10-18T00:08:59.943Z,21.67
2022-10-18T00:10:04.224Z,21.69
2022-10-18T00:11:08.446Z,21.69
2022-10-18T00:12:12.672Z,21.68
2022-10-18T00:13:16.896Z,21.69
2022-10-18T00:14:21.149Z,21.71
2022-10-18T00:15:25.351Z,21.72
2022-10-18T00:16:29.562Z,21.71
2022-10-18T00:17:33.977Z,21.71
2022-10-18T00:18:38.254Z,21.7
2022-10-18T00:19:42.514Z,21.69
2022-10-18T00:20:46.816Z,21.7
2022-10-18T00:21:51.059Z,21.72
2022-10-18T00:22:55.276Z,21.71
2022-10-18T00:23:59.523Z,21.69
2022-10-18T00:25:03.798Z,21.71
2022-10-18T00:26:08.051Z,21.71
2022-10-18T00:27:12.263Z,21.72
2022-10-18T00:28:16.501Z,21.7
2022-10-18T00:29:20.728Z,21.7
2022-10-18T00:30:24.962Z,21.7
2022-10-18T00:31:29.162Z,21.71
2022-10-18T00:32:33.801Z,21.68
2022-10-18T00:33:38.194Z,21.7
2022-10-18T00:34:42.420Z,21.71
2022-10-18T00:35:46.615Z,21.7
2022-10-18T00:36:50.842Z,21.68
2022-10-18T00:37:55.097Z,21.68
2022-10-18T00:38:59.311Z,21.68
2022-10-18T00:40:03.551Z,21.69
2022-10-18T00:41:07.779Z,21.68
2022-10-18T00:42:12.000Z,21.69
2022-10-18T00:43:16.478Z,21.69
2022-10-18T00:44:20.747Z,21.67
2022-10-18T00:45:24.957Z,21.68
2022-10-18T00:46:29.159Z,21.7
2022-10-18T00:47:33.393Z,21.67
2022-10-18T00:48:37.608Z,21.67
2022-10-18T00:49:41.832Z,21.66
2022-10-18T00:50:46.026Z,21.66
2022-10-18T00:51:50.241Z,21.65
2022-10-18T00:52:54.446Z,21.64
2022-10-18T00:53:58.692Z,21.65
2022-10-18T00:55:02.945Z,21.66
2022-10-18T00:56:07.213Z,21.68
2022-10-18T00:57:11.430Z,21.68
2022-10-18T00:58:15.650Z,21.68
2022-10-18T00:59:19.878Z,21.69
2022-10-18T01:00:24.178Z,21.7
2022-10-18T01:01:28.541Z,21.7
2022-10-18T01:02:33.306Z,21.69
2022-10-18T01:03:37.698Z,21.69
2022-10-18T01:04:41.905Z,21.69
2022-10-18T01:05:46.119Z,21.68
2022-10-18T01:06:50.519Z,21.66
2022-10-18T01:07:54.940Z,21.65
2022-10-18T01:08:59.181Z,21.67
2022-10-18T01:10:03.453Z,21.65
2022-10-18T01:11:07.666Z,21.66
2022-10-18T01:12:11.887Z,21.67
2022-10-18T01:13:16.095Z,21.66
2022-10-18T01:14:25.656Z,21.65
2022-10-18T01:15:29.880Z,21.66
2022-10-18T01:16:34.132Z,21.68
2022-10-18T01:17:38.385Z,21.67
2022-10-18T01:18:42.637Z,21.67
2022-10-18T01:19:46.871Z,21.67
2022-10-18T01:20:51.114Z,21.69
2022-10-18T01:21:55.342Z,21.69
2022-10-18T01:22:59.695Z,21.69
2022-10-18T01:24:03.926Z,21.69
2022-10-18T01:25:08.122Z,21.69
2022-10-18T01:26:12.380Z,21.66
2022-10-18T01:27:16.582Z,21.66
2022-10-18T01:28:20.815Z,21.67
2022-10-18T01:29:25.197Z,21.66
2022-10-18T01:30:29.562Z,21.63
2022-10-18T01:31:33.825Z,21.64
2022-10-18T01:32:38.033Z,21.66
2022-10-18T01:33:42.212Z,21.67
2022-10-18T01:34:46.589Z,21.67
2022-10-18T01:35:50.790Z,21.65
2022-10-18T01:36:55.000Z,21.66
2022-10-18T01:37:59.226Z,21.65
2022-10-18T01:39:03.464Z,21.67
2022-10-18T01:40:07.656Z,21.66
2022-10-18T01:41:14.752Z,21.66
2022-10-18T01:42:20.109Z,21.66
2022-10-18T01:43:24.340Z,21.63
2022-10-18T01:44:28.556Z,21.61
2022-10-18T01:45:32.779Z,21.61
2022-10-18T01:46:37.004Z,21.58
2022-10-18T01:47:41.249Z,21.6
2022-10-18T01:48:45.459Z,21.62
2022-10-18T01:49:49.691Z,21.6
2022-10-18T01:50:53.909Z,21.59
2022-10-18T01:51:58.155Z,21.58
2022-10-18T01:53:02.621Z,21.6
2022-10-18T01:54:06.838Z,21.61
2022-10-18T01:55:11.053Z,21.6
2022-10-18T01:56:15.302Z,21.6
2022-10-18T01:57:19.526Z,21.6
2022-10-18T01:58:23.753Z,21.6
2022-10-18T01:59:27.951Z,21.58
2022-10-18T02:00:32.157Z,21.59
2022-10-18T02:01:36.400Z,21.58
2022-10-18T02:02:40.652Z,21.58
2022-10-18T02:03:44.870Z,21.58
2022-10-18T02:04:49.074Z,21.57
2022-10-18T02:05:53.277Z,21.57
2022-10-18T02:06:57.468Z,21.57
2022-10-18T02:08:11.946Z,21.58
2022-10-18T02:09:26.836Z,21.57
2022-10-18T02:10:31.043Z,21.57
2022-10-18T02:11:35.272Z,21.59
2022-10-18T02:12:39.505Z,21.57
2022-10-18T02:13:43.728Z,21.6
2022-10-18T02:14:47.947Z,21.58
2022-10-18T02:15:52.181Z,21.57
2022-10-18T02:16:56.423Z,21.57
2022-10-18T02:18:00.693Z,21.55
2022-10-18T02:19:04.893Z,21.56
2022-10-18T02:20:09.084Z,21.56
2022-10-18T02:21:13.297Z,21.59
2022-10-18T02:22:17.513Z,21.59
2022-10-18T02:23:21.769Z,21.59
2022-10-18T02:24:25.993Z,21.6
2022-10-18T02:25:30.257Z,21.59
2022-10-18T02:26:34.465Z,21.6
2022-10-18T02:27:38.684Z,21.59
2022-10-18T02:28:42.881Z,21.6
2022-10-18T02:29:47.129Z,21.6
2022-10-18T02:30:51.578Z,21.58
2022-10-18T02:31:55.845Z,21.59
2022-10-18T02:33:00.099Z,21.59
2022-10-18T02:34:04.340Z,21.58
2022-10-18T02:35:08.591Z,21.58
2022-10-18T02:36:12.819Z,21.59
2022-10-18T02:37:17.106Z,21.6
2022-10-18T02:38:21.449Z,21.59
2022-10-18T02:39:25.688Z,21.56
2022-10-18T02:40:29.915Z,21.56
2022-10-18T02:41:34.139Z,21.56
2022-10-18T02:42:38.343Z,21.56
2022-10-18T02:43:42.588Z,21.55
2022-10-18T02:44:46.796Z,21.54
2022-10-18T02:45:51.045Z,21.54
2022-10-18T02:46:55.256Z,21.57
2022-10-18T02:47:59.496Z,21.58
2022-10-18T02:49:03.823Z,21.58
2022-10-18T02:50:08.027Z,21.56
2022-10-18T02:51:12.310Z,21.54
2022-10-18T02:52:16.559Z,21.56
2022-10-18T02:53:20.789Z,21.56
2022-10-18T02:54:25.015Z,21.57
2022-10-18T02:56:33.593Z,21.55
2022-10-18T02:57:37.797Z,21.58
2022-10-18T02:58:42.031Z,21.56
2022-10-18T02:59:46.247Z,21.56
2022-10-18T03:00:50.465Z,21.58
2022-10-18T03:01:54.793Z,21.56
2022-10-18T03:02:59.201Z,21.56
2022-10-18T03:04:03.665Z,21.53
2022-10-18T03:05:08.915Z,21.52
2022-10-18T03:06:13.152Z,21.51
2022-10-18T03:07:17.362Z,21.53
2022-10-18T03:08:21.579Z,21.51
2022-10-18T03:09:25.792Z,21.51
2022-10-18T03:10:30.029Z,21.5
2022-10-18T03:11:34.252Z,21.51
2022-10-18T03:12:38.487Z,21.5
2022-10-18T03:13:42.700Z,21.52
2022-10-18T03:14:46.928Z,21.52
2022-10-18T03:15:51.142Z,21.51
2022-10-18T03:16:55.352Z,21.51
2022-10-18T03:17:59.580Z,21.52
2022-10-18T03:19:03.769Z,21.53
2022-10-18T03:20:08.033Z,21.55
2022-10-18T03:21:13.317Z,21.53
2022-10-18T03:22:17.557Z,21.54
2022-10-18T03:23:21.972Z,21.52
2022-10-18T03:24:26.201Z,21.53
2022-10-18T03:25:30.590Z,21.55
2022-10-18T03:26:34.807Z,21.53
2022-10-18T03:27:39.018Z,21.52
2022-10-18T03:28:43.299Z,21.52
2022-10-18T03:29:47.705Z,21.53
2022-10-18T03:30:51.948Z,21.52
2022-10-18T03:31:56.204Z,21.52
2022-10-18T03:33:00.420Z,21.53
2022-10-18T03:34:04.641Z,21.51
2022-10-18T03:35:08.876Z,21.5
2022-10-18T03:36:13.117Z,21.52
2022-10-18T03:37:17.325Z,21.54
2022-10-18T03:38:21.627Z,21.52
2022-10-18T03:39:25.865Z,21.51
2022-10-18T03:41:35.410Z,21.51
2022-10-18T03:42:39.633Z,21.51
2022-10-18T03:43:43.861Z,21.53
2022-10-18T03:44:48.056Z,21.52
2022-10-18T03:45:52.284Z,21.53
2022-10-18T03:46:56.512Z,21.53
2022-10-18T03:48:00.752Z,21.53
2022-10-18T03:49:04.942Z,21.54
2022-10-18T03:50:09.124Z,21.54
2022-10-18T03:51:13.393Z,21.55
2022-10-18T03:52:18.624Z,21.55
2022-10-18T03:53:22.893Z,21.55
2022-10-18T03:54:27.102Z,21.56
2022-10-18T03:55:31.317Z,21.56
2022-10-18T03:56:35.518Z,21.56
2022-10-18T03:57:40.046Z,21.56
2022-10-18T03:58:44.249Z,21.57
2022-10-18T03:59:48.507Z,21.57
2022-10-18T04:00:52.731Z,21.57
2022-10-18T04:01:57.023Z,21.58
2022-10-18T04:03:01.474Z,21.63
2022-10-18T04:04:05.738Z,21.66
2022-10-18T04:05:09.942Z,21.78
2022-10-18T04:06:14.170Z,21.88
2022-10-18T04:07:18.411Z,22.01
2022-10-18T04:08:22.645Z,22.03
2022-10-18T04:09:26.872Z,22
2022-10-18T04:10:31.089Z,21.99
2022-10-18T04:11:35.317Z,21.97
2022-10-18T04:12:39.801Z,21.96
2022-10-18T04:13:44.030Z,21.96
2022-10-18T04:14:48.263Z,21.97
2022-10-18T04:15:52.552Z,21.98
2022-10-18T04:16:56.759Z,21.99
2022-10-18T04:18:00.967Z,21.99
2022-10-18T04:19:05.180Z,22.01
2022-10-18T04:20:09.414Z,22.03
2022-10-18T04:21:13.657Z,22.04
2022-10-18T04:22:17.848Z,22.04
2022-10-18T04:23:22.079Z,22.08
2022-10-18T04:24:28.587Z,22.08
2022-10-18T04:25:32.839Z,22.1
2022-10-18T04:26:37.336Z,22.1
2022-10-18T04:27:41.568Z,22.1
2022-10-18T04:28:45.863Z,22.1
2022-10-18T04:29:50.343Z,22.09
2022-10-18T04:30:54.551Z,22.09
2022-10-18T04:31:58.758Z,22.09
2022-10-18T04:33:02.964Z,22.07
2022-10-18T04:34:07.179Z,22.06
2022-10-18T04:35:11.441Z,22.04
2022-10-18T04:36:15.662Z,22.03
2022-10-18T04:37:19.946Z,22.01
2022-10-18T04:38:24.161Z,22.01
2022-10-18T04:39:28.400Z,21.99
2022-10-18T04:40:32.878Z,21.98
2022-10-18T04:41:37.139Z,21.96
2022-10-18T04:42:41.364Z,21.94
2022-10-18T04:44:49.791Z,21.92
2022-10-18T04:45:54.052Z,21.89
2022-10-18T04:46:58.280Z,21.87
2022-10-18T04:48:02.485Z,21.87
2022-10-18T04:49:06.730Z,21.85
2022-10-18T04:50:10.959Z,21.84
2022-10-18T04:51:15.228Z,21.82
2022-10-18T04:52:19.732Z,21.83
2022-10-18T04:53:23.978Z,21.82
2022-10-18T04:54:28.668Z,21.81
2022-10-18T04:55:32.986Z,21.8
2022-10-18T04:56:37.446Z,21.79
2022-10-18T04:57:41.653Z,21.78
2022-10-18T04:58:45.878Z,21.75
2022-10-18T04:59:50.146Z,21.76
2022-10-18T05:00:54.616Z,21.76
2022-10-18T05:01:58.915Z,21.75
2022-10-18T05:03:03.486Z,21.74
2022-10-18T05:04:07.691Z,21.72
2022-10-18T05:05:13.312Z,21.72
2022-10-18T05:06:18.492Z,21.72
2022-10-18T05:07:22.707Z,21.72
2022-10-18T05:08:26.921Z,21.71
2022-10-18T05:09:31.129Z,21.71
2022-10-18T05:10:35.329Z,21.71
2022-10-18T05:11:39.577Z,21.7
2022-10-18T05:12:43.772Z,21.69
2022-10-18T05:13:48.671Z,21.68
2022-10-18T05:14:56.379Z,21.69
2022-10-18T05:16:01.131Z,21.69
2022-10-18T05:17:05.353Z,21.69
2022-10-18T05:18:09.553Z,21.68
2022-10-18T05:19:13.849Z,21.67
2022-10-18T05:20:18.059Z,21.67
2022-10-18T05:21:22.293Z,21.66
2022-10-18T05:22:26.524Z,21.64
2022-10-18T05:23:31.271Z,21.66
2022-10-18T05:24:35.526Z,21.64
2022-10-18T05:25:39.764Z,21.63
2022-10-18T05:26:43.984Z,21.61
2022-10-18T05:27:48.212Z,21.6
2022-10-18T05:28:52.495Z,21.59
2022-10-18T05:29:57.933Z,21.58
2022-10-18T05:31:08.687Z,21.58
2022-10-18T05:32:12.896Z,21.58
2022-10-18T05:33:17.109Z,21.59
2022-10-18T05:34:21.330Z,21.58
2022-10-18T05:35:25.562Z,21.58
2022-10-18T05:36:29.759Z,21.56
2022-10-18T05:37:34.059Z,21.53
2022-10-18T05:38:38.306Z,21.53
2022-10-18T05:39:42.515Z,21.53
2022-10-18T05:40:46.722Z,21.52
2022-10-18T05:41:50.947Z,21.53
2022-10-18T05:42:55.157Z,21.54
2022-10-18T05:43:59.400Z,21.55
2022-10-18T05:45:03.653Z,21.52
2022-10-18T05:46:10.588Z,21.52
2022-10-18T05:47:19.145Z,21.51
2022-10-18T05:48:23.504Z,21.5
2022-10-18T05:49:27.756Z,21.51
2022-10-18T05:50:34.475Z,21.5
2022-10-18T05:51:43.691Z,21.48
2022-10-18T05:52:47.924Z,21.48
2022-10-18T05:53:52.146Z,21.49
2022-10-18T05:54:56.371Z,21.48
2022-10-18T05:56:00.592Z,21.48
2022-10-18T05:57:04.822Z,21.48
2022-10-18T05:58:09.061Z,21.47
2022-10-18T05:59:13.284Z,21.46
2022-10-18T06:00:17.499Z,21.46
2022-10-18T06:01:21.711Z,21.45
2022-10-18T06:02:26.012Z,21.44
2022-10-18T06:03:30.357Z,21.51
2022-10-18T06:04:34.675Z,21.51
2022-10-18T06:06:43.107Z,21.57
2022-10-18T06:07:47.348Z,21.59
2022-10-18T06:08:51.582Z,21.61
2022-10-18T06:09:55.885Z,21.66
2022-10-18T06:11:00.107Z,21.67
2022-10-18T06:12:04.334Z,21.69
2022-10-18T06:13:08.566Z,21.72
2022-10-18T06:14:12.778Z,21.74
2022-10-18T06:15:17.046Z,21.74
2022-10-18T06:16:21.360Z,21.74
2022-10-18T06:17:30.268Z,21.75
2022-10-18T06:18:37.802Z,21.75
2022-10-18T06:19:42.035Z,21.74
2022-10-18T06:20:46.266Z,21.74
2022-10-18T06:21:50.869Z,21.73
2022-10-18T06:22:55.086Z,21.73
2022-10-18T06:23:59.303Z,21.71
2022-10-18T06:25:03.537Z,21.7
2022-10-18T06:26:07.759Z,21.69
2022-10-18T06:27:13.029Z,21.68
2022-10-18T06:28:19.534Z,21.69
2022-10-18T06:29:23.784Z,21.67
2022-10-18T06:30:28.026Z,21.67
2022-10-18T06:31:32.247Z,21.66
2022-10-18T06:32:36.461Z,21.68
2022-10-18T06:33:40.660Z,21.7
2022-10-18T06:34:44.963Z,21.69
2022-10-18T06:35:49.188Z,21.67
2022-10-18T06:36:56.321Z,21.69
2022-10-18T06:38:02.249Z,21.66
2022-10-18T06:39:06.463Z,21.67
2022-10-18T06:40:10.691Z,21.66
2022-10-18T06:41:14.935Z,21.65
2022-10-18T06:42:20.422Z,21.66
2022-10-18T06:43:26.835Z,21.66
2022-10-18T06:44:31.079Z,21.64
2022-10-18T06:45:35.334Z,21.64
2022-10-18T06:46:39.556Z,21.61
2022-10-18T06:47:43.786Z,21.59
2022-10-18T06:48:48.001Z,21.58
2022-10-18T06:49:52.239Z,21.59
2022-10-18T06:50:56.485Z,21.58
2022-10-18T06:52:00.701Z,21.57
2022-10-18T06:53:04.921Z,21.57
2022-10-18T06:54:24.528Z,21.57
2022-10-18T06:55:28.748Z,21.57
2022-10-18T06:56:32.987Z,21.57
2022-10-18T06:57:37.190Z,21.57
2022-10-18T06:58:41.462Z,21.56
2022-10-18T06:59:45.668Z,21.56
2022-10-18T07:00:49.858Z,21.55
2022-10-18T07:01:54.207Z,21.55
2022-10-18T07:02:58.653Z,21.56
2022-10-18T07:04:03.835Z,21.53
2022-10-18T07:05:08.056Z,21.53
2022-10-18T07:06:12.564Z,21.53
2022-10-18T07:07:16.780Z,21.53
2022-10-18T07:08:21.029Z,21.52
2022-10-18T07:09:25.261Z,21.53
2022-10-18T07:10:29.483Z,21.51
2022-10-18T07:11:33.705Z,21.51
2022-10-18T07:12:37.956Z,21.51
2022-10-18T07:13:42.206Z,21.52
2022-10-18T07:14:46.458Z,21.52
2022-10-18T07:15:50.688Z,21.51
2022-10-18T07:16:54.913Z,21.52
2022-10-18T07:17:59.139Z,21.5
2022-10-18T07:19:03.418Z,21.48
2022-10-18T07:20:07.674Z,21.49
2022-10-18T07:21:11.915Z,21.47
2022-10-18T07:22:16.176Z,21.48
2022-10-18T07:23:20.424Z,21.49
2022-10-18T07:24:24.725Z,21.5
2022-10-18T07:25:30.484Z,21.5
2022-10-18T07:26:34.875Z,21.51
2022-10-18T07:27:39.100Z,21.49
2022-10-18T07:28:43.332Z,21.44
2022-10-18T07:29:47.765Z,21.47
2022-10-18T07:30:51.971Z,21.48
2022-10-18T07:31:56.238Z,21.48
2022-10-18T07:33:01.447Z,21.47
2022-10-18T07:34:05.711Z,21.44
2022-10-18T07:36:15.480Z,21.44
2022-10-18T07:37:20.748Z,21.44
2022-10-18T07:38:32.369Z,21.43
2022-10-18T07:39:36.653Z,21.43
2022-10-18T07:40:40.853Z,21.42
2022-10-18T07:41:45.068Z,21.41
2022-10-18T07:42:49.286Z,21.41
2022-10-18T07:43:53.486Z,21.41
2022-10-18T07:44:57.702Z,21.41
2022-10-18T07:46:01.890Z,21.42
2022-10-18T07:47:06.148Z,21.46
2022-10-18T07:48:10.442Z,21.48
2022-10-18T07:49:14.692Z,21.5
2022-10-18T07:50:18.876Z,21.52
2022-10-18T07:51:23.264Z,21.54
2022-10-18T07:52:27.475Z,21.56
2022-10-18T07:53:31.746Z,21.58
2022-10-18T07:54:36.021Z,21.58
2022-10-18T07:55:40.421Z,21.59
2022-10-18T07:56:44.651Z,21.57
2022-10-18T07:57:48.868Z,21.56
2022-10-18T07:58:53.110Z,21.55
2022-10-18T07:59:57.334Z,21.56
2022-10-18T08:01:01.582Z,21.55
2022-10-18T08:02:05.908Z,21.56
2022-10-18T08:03:10.181Z,21.58
2022-10-18T08:04:16.456Z,21.57
2022-10-18T08:05:20.920Z,21.56
2022-10-18T08:06:25.383Z,21.57
2022-10-18T08:07:29.790Z,21.57
2022-10-18T08:08:34.972Z,21.57
2022-10-18T08:09:39.223Z,21.56
2022-10-18T08:10:43.435Z,21.58
2022-10-18T08:11:47.650Z,21.59
2022-10-18T08:12:51.862Z,21.58
2022-10-18T08:13:56.087Z,21.56
2022-10-18T08:15:00.331Z,21.55
2022-10-18T08:16:04.543Z,21.55
2022-10-18T08:17:08.744Z,21.55
2022-10-18T08:18:12.965Z,21.55
2022-10-18T08:19:17.204Z,21.55
2022-10-18T08:20:30.216Z,21.54
2022-10-18T08:21:35.050Z,21.55
2022-10-18T08:22:39.275Z,21.57
2022-10-18T08:23:43.514Z,21.55
2022-10-18T08:24:47.791Z,21.53
2022-10-18T08:25:52.017Z,21.5
2022-10-18T08:26:56.221Z,21.49
2022-10-18T08:28:00.479Z,21.48
2022-10-18T08:29:17.840Z,21.48
2022-10-18T08:30:34.060Z,21.5
2022-10-18T08:31:38.346Z,21.48
2022-10-18T08:32:42.613Z,21.5
2022-10-18T08:33:46.805Z,21.5
2022-10-18T08:34:51.019Z,21.46
2022-10-18T08:35:55.231Z,21.47
2022-10-18T08:36:59.457Z,21.47
2022-10-18T08:38:03.669Z,21.47
2022-10-18T08:39:07.933Z,21.48
2022-10-18T08:40:12.165Z,21.47
2022-10-18T08:41:16.652Z,21.48
2022-10-18T08:42:20.849Z,21.48
2022-10-18T08:43:25.137Z,21.46
2022-10-18T08:44:29.547Z,21.46
2022-10-18T08:45:48.688Z,21.44
2022-10-18T08:46:53.165Z,21.44
2022-10-18T08:47:57.399Z,21.42
2022-10-18T08:49:03.870Z,21.43
2022-10-18T08:50:08.177Z,21.43
2022-10-18T08:51:12.392Z,21.42
2022-10-18T08:52:16.635Z,21.41
2022-10-18T08:53:20.832Z,21.41
2022-10-18T08:54:25.110Z,21.44
2022-10-18T08:55:29.377Z,21.44
2022-10-18T08:56:33.605Z,21.43
2022-10-18T08:57:38.096Z,21.43
2022-10-18T08:58:42.321Z,21.4
2022-10-18T08:59:46.544Z,21.39
2022-10-18T09:00:50.833Z,21.42
2022-10-18T09:01:55.081Z,21.43
2022-10-18T09:02:59.399Z,21.46
2022-10-18T09:04:03.818Z,21.42
2022-10-18T09:05:08.012Z,21.43
2022-10-18T09:06:12.288Z,21.44
2022-10-18T09:07:16.558Z,21.43
2022-10-18T09:08:20.786Z,21.42
2022-10-18T09:09:25.079Z,21.39
2022-10-18T09:10:29.308Z,21.4
2022-10-18T09:11:33.553Z,21.41
2022-10-18T09:12:37.767Z,21.41
2022-10-18T09:13:41.998Z,21.41
2022-10-18T09:14:46.277Z,21.4
2022-10-18T09:15:50.523Z,21.4
2022-10-18T09:16:54.783Z,21.38
2022-10-18T09:17:59.019Z,21.39
2022-10-18T09:19:03.282Z,21.37
2022-10-18T09:20:07.512Z,21.36
2022-10-18T09:21:11.732Z,21.36
2022-10-18T09:22:15.920Z,21.36
2022-10-18T09:23:20.133Z,21.35
2022-10-18T09:24:24.364Z,21.35
2022-10-18T09:25:28.654Z,21.33
2022-10-18T09:26:32.881Z,21.33
2022-10-18T09:27:37.125Z,21.32
2022-10-18T09:28:41.448Z,21.32
2022-10-18T09:29:48.893Z,21.32
2022-10-18T09:30:53.860Z,21.3
2022-10-18T09:32:02.792Z,21.3
2022-10-18T09:33:07.009Z,21.29
2022-10-18T09:34:11.216Z,21.28
2022-10-18T09:35:15.488Z,21.3
2022-10-18T09:36:19.708Z,21.32
2022-10-18T09:37:24.004Z,21.3
2022-10-18T09:38:28.243Z,21.29
2022-10-18T09:39:32.475Z,21.29
2022-10-18T09:40:36.682Z,21.28
2022-10-18T09:41:40.929Z,21.28
2022-10-18T09:42:45.171Z,21.28
2022-10-18T09:43:49.425Z,21.25
2022-10-18T09:44:53.622Z,21.24
2022-10-18T09:45:57.893Z,21.28
2022-10-18T09:47:02.137Z,21.3
2022-10-18T09:48:06.487Z,21.3
2022-10-18T09:49:11.769Z,21.27
2022-10-18T09:50:19.749Z,21.26
2022-10-18T09:51:23.985Z,21.3
2022-10-18T09:52:28.235Z,21.31
2022-10-18T09:53:33.361Z,21.31
2022-10-18T09:54:37.575Z,21.32
2022-10-18T09:55:41.782Z,21.31
2022-10-18T09:56:46.052Z,21.3
2022-10-18T09:57:50.518Z,21.29
2022-10-18T09:58:54.748Z,21.26
2022-10-18T09:59:58.977Z,21.27
2022-10-18T10:01:03.206Z,21.26
2022-10-18T10:02:07.555Z,21.27
2022-10-18T10:03:11.904Z,21.27
2022-10-18T10:04:16.132Z,21.29
2022-10-18T10:05:20.373Z,21.29
2022-10-18T10:06:24.552Z,21.29
2022-10-18T10:07:29.957Z,21.29
2022-10-18T10:08:38.935Z,21.32
2022-10-18T10:09:43.148Z,21.33
2022-10-18T10:10:47.389Z,21.32
2022-10-18T10:11:51.626Z,21.32
2022-10-18T10:12:55.874Z,21.31
2022-10-18T10:14:00.094Z,21.33
2022-10-18T10:15:04.344Z,21.3
2022-10-18T10:16:08.604Z,21.28
2022-10-18T10:17:12.815Z,21.3
2022-10-18T10:18:17.073Z,21.3
2022-10-18T10:19:21.307Z,21.29
2022-10-18T10:20:25.515Z,21.3
2022-10-18T10:21:29.766Z,21.3
2022-10-18T10:22:34.007Z,21.29
2022-10-18T10:23:38.482Z,21.29
2022-10-18T10:24:42.691Z,21.3
2022-10-18T10:25:46.919Z,21.3
2022-10-18T10:26:51.154Z,21.31
2022-10-18T10:27:55.409Z,21.32
2022-10-18T10:28:59.751Z,21.3
2022-10-18T10:30:07.186Z,21.28
2022-10-18T10:31:11.667Z,21.29
2022-10-18T10:32:15.940Z,21.29
2022-10-18T10:33:20.459Z,21.3
2022-10-18T10:34:24.722Z,21.29
2022-10-18T10:35:35.406Z,21.29
2022-10-18T10:36:57.079Z,21.31
2022-10-18T10:38:01.353Z,21.31
2022-10-18T10:39:05.807Z,21.32
2022-10-18T10:40:18.629Z,21.32
2022-10-18T10:41:33.763Z,21.3
2022-10-18T10:42:38.185Z,21.28
2022-10-18T10:43:42.436Z,21.31
2022-10-18T10:44:46.672Z,21.31
2022-10-18T10:45:50.902Z,21.33
2022-10-18T10:46:55.158Z,21.34
2022-10-18T10:47:59.355Z,21.36
2022-10-18T10:49:34.816Z,21.37
2022-10-18T10:50:44.561Z,21.38
2022-10-18T10:51:50.678Z,21.41
2022-10-18T10:53:28.725Z,21.43
2022-10-18T10:54:32.962Z,21.44
2022-10-18T10:55:37.253Z,21.44
2022-10-18T10:56:41.465Z,21.45
2022-10-18T10:57:45.677Z,21.45
2022-10-18T10:58:49.996Z,21.46
2022-10-18T10:59:54.306Z,21.45
2022-10-18T11:00:58.555Z,21.46
2022-10-18T11:02:02.780Z,21.47
2022-10-18T11:03:24.079Z,21.45
2022-10-18T11:04:33.518Z,21.46
2022-10-18T11:05:37.733Z,21.47
2022-10-18T11:06:42.007Z,21.47
2022-10-18T11:07:46.237Z,21.46
2022-10-18T11:08:50.473Z,21.46
2022-10-18T11:09:54.730Z,21.46
2022-10-18T11:10:59.469Z,21.47
2022-10-18T11:12:03.733Z,21.48
2022-10-18T11:13:07.968Z,21.47
2022-10-18T11:14:27.484Z,21.46
2022-10-18T11:15:31.767Z,21.44
2022-10-18T11:16:35.992Z,21.45
2022-10-18T11:17:40.269Z,21.43
2022-10-18T11:18:44.676Z,21.46
2022-10-18T11:19:48.899Z,21.44
2022-10-18T11:20:53.135Z,21.45
2022-10-18T11:21:57.350Z,21.45
2022-10-18T11:23:01.592Z,21.45
2022-10-18T11:24:05.892Z,21.43
2022-10-18T11:25:10.093Z,21.43
2022-10-18T11:26:14.367Z,21.44
2022-10-18T11:27:18.597Z,21.43
2022-10-18T11:28:22.820Z,21.41
2022-10-18T11:29:27.328Z,21.41
2022-10-18T11:30:31.571Z,21.41
2022-10-18T11:31:35.823Z,21.42
2022-10-18T11:32:40.040Z,21.42
2022-10-18T11:34:07.467Z,21.42
2022-10-18T11:35:13.751Z,21.42
2022-10-18T11:36:18.105Z,21.44
2022-10-18T11:37:28.439Z,21.44
2022-10-18T11:38:40.878Z,21.43
2022-10-18T11:39:45.079Z,21.42
2022-10-18T11:40:49.313Z,21.41
2022-10-18T11:41:53.512Z,21.4
2022-10-18T11:42:57.744Z,21.42
2022-10-18T11:44:03.227Z,21.42
2022-10-18T11:45:07.558Z,21.41
2022-10-18T11:46:11.796Z,21.4
2022-10-18T11:47:16.031Z,21.38
2022-10-18T11:48:20.264Z,21.37
2022-10-18T11:49:24.509Z,21.37
2022-10-18T11:50:28.709Z,21.37
2022-10-18T11:51:34.261Z,21.38
2022-10-18T11:53:11.569Z,21.38
2022-10-18T11:54:15.786Z,21.35
2022-10-18T11:55:19.999Z,21.38
2022-10-18T11:56:24.228Z,21.38
2022-10-18T11:57:28.448Z,21.36
2022-10-18T11:58:33.691Z,21.35
2022-10-18T11:59:37.927Z,21.36
2022-10-18T12:00:42.188Z,21.37
2022-10-18T12:01:46.459Z,21.4
2022-10-18T12:02:50.790Z,21.43
2022-10-18T12:03:55.232Z,21.45
2022-10-18T12:06:33.631Z,21.49
2022-10-18T12:07:37.897Z,21.5
2022-10-18T12:08:42.132Z,21.49
2022-10-18T12:09:46.360Z,21.47
2022-10-18T12:11:06.543Z,21.48
2022-10-18T12:12:10.900Z,21.47
2022-10-18T12:13:15.143Z,21.48
2022-10-18T12:14:19.402Z,21.46
2022-10-18T12:15:23.623Z,21.46
2022-10-18T12:16:45.875Z,21.47
2022-10-18T12:18:30.413Z,21.49
2022-10-18T12:19:34.639Z,21.49
2022-10-18T12:20:38.884Z,21.49
2022-10-18T12:21:43.154Z,21.48
2022-10-18T12:22:47.526Z,21.48
2022-10-18T12:23:51.768Z,21.46
2022-10-18T12:24:56.006Z,21.47
2022-10-18T12:26:00.220Z,21.45
2022-10-18T12:27:04.450Z,21.47
2022-10-18T12:28:08.692Z,21.45
2022-10-18T12:29:12.909Z,21.45
2022-10-18T12:30:17.163Z,21.45
2022-10-18T12:31:21.397Z,21.47
2022-10-18T12:32:25.726Z,21.47
2022-10-18T12:33:29.924Z,21.48
2022-10-18T12:34:34.262Z,21.47
2022-10-18T12:35:38.498Z,21.45
2022-10-18T12:36:42.747Z,21.45
2022-10-18T12:37:46.982Z,21.44
2022-10-18T12:38:51.206Z,21.45
2022-10-18T12:40:09.694Z,21.43
2022-10-18T12:41:23.558Z,21.45
2022-10-18T12:42:27.813Z,21.47
2022-10-18T12:43:32.049Z,21.43
2022-10-18T12:44:39.287Z,21.42
2022-10-18T12:45:43.476Z,21.4
2022-10-18T12:46:47.692Z,21.43
2022-10-18T12:47:51.954Z,21.41
2022-10-18T12:48:56.187Z,21.4
2022-10-18T12:50:00.434Z,21.41
2022-10-18T12:51:04.947Z,21.41
2022-10-18T12:52:09.152Z,21.42
2022-10-18T12:53:13.418Z,21.4
2022-10-18T12:54:17.644Z,21.39
2022-10-18T12:55:21.879Z,21.42
2022-10-18T12:56:26.136Z,21.42
2022-10-18T12:57:30.695Z,21.42
2022-10-18T12:58:35.725Z,21.4
2022-10-18T12:59:39.956Z,21.4
2022-10-18T13:00:44.178Z,21.44
2022-10-18T13:01:49.463Z,21.43
2022-10-18T13:02:54.111Z,21.43
2022-10-18T13:03:58.341Z,21.41
2022-10-18T13:05:02.670Z,21.41
2022-10-18T13:06:12.137Z,21.41
2022-10-18T13:07:16.349Z,21.4
2022-10-18T13:08:20.582Z,21.41
2022-10-18T13:09:24.797Z,21.42
2022-10-18T13:10:29.051Z,21.42
2022-10-18T13:11:33.276Z,21.4
2022-10-18T13:12:37.494Z,21.4
2022-10-18T13:13:41.732Z,21.41
2022-10-18T13:14:53.304Z,21.41
2022-10-18T13:16:29.972Z,21.4
2022-10-18T13:17:34.439Z,21.41
2022-10-18T13:18:39.050Z,21.41
2022-10-18T13:19:43.268Z,21.4
2022-10-18T13:20:47.484Z,21.4
2022-10-18T13:21:51.686Z,21.39
2022-10-18T13:22:55.974Z,21.39
2022-10-18T13:24:00.254Z,21.37
2022-10-18T13:25:04.535Z,21.36
2022-10-18T13:26:08.756Z,21.36
2022-10-18T13:27:31.286Z,21.37
2022-10-18T13:28:48.176Z,21.37
2022-10-18T13:29:52.680Z,21.37
2022-10-18T13:30:56.925Z,21.36
2022-10-18T13:32:01.154Z,21.38
2022-10-18T13:33:05.794Z,21.38
2022-10-18T13:34:10.046Z,21.38
2022-10-18T13:35:14.290Z,21.37
2022-10-18T13:36:21.723Z,21.36
2022-10-18T13:37:28.775Z,21.37
2022-10-18T13:38:33.013Z,21.35
2022-10-18T13:39:37.279Z,21.37
2022-10-18T13:40:41.491Z,21.36
2022-10-18T13:41:45.734Z,21.37
2022-10-18T13:42:50.001Z,21.36
2022-10-18T13:43:54.233Z,21.34
2022-10-18T13:44:58.492Z,21.35
2022-10-18T13:46:02.724Z,21.34
2022-10-18T13:47:06.961Z,21.36
2022-10-18T13:48:11.225Z,21.36
2022-10-18T13:49:15.437Z,21.35
2022-10-18T13:50:19.708Z,21.35
2022-10-18T13:51:24.131Z,21.34
2022-10-18T13:52:28.351Z,21.35
2022-10-18T13:53:33.210Z,21.36
2022-10-18T13:54:37.438Z,21.35
2022-10-18T13:55:41.685Z,21.34
2022-10-18T13:56:45.949Z,21.35
2022-10-18T13:57:50.171Z,21.34
2022-10-18T13:59:06.061Z,21.33
2022-10-18T14:00:18.617Z,21.32
2022-10-18T14:01:22.917Z,21.33
2022-10-18T14:02:49.644Z,21.31
2022-10-18T14:04:02.581Z,21.3
2022-10-18T14:05:23.345Z,21.32
2022-10-18T14:06:29.102Z,21.29
2022-10-18T14:07:33.345Z,21.31
2022-10-18T14:08:37.578Z,21.28